In Rescue
 
Open Full Screen Window  High Contrast Mode
Wind Gusting 00 knots
05
January 22, 2020 7:10 PM EST
Weather Information
Wind Direction
  180 °
Wind Speed
  05 kt (6 mph)
Wind Gust
  00 kt (0 mph)
Altimeter
30.19 in
Visibility
10 SM
Temperature
-02° C
28° F
Dewpoint
-09° C
16° F
Humidity
59%
1hr Rain Fall
00.00 in.
24hr Rain Fall
00.00 in.
Sky Condition
Clear
VFR

METAR KY70 230010Z AUTO 18005KT 10SM CLR M02/M09 A3019 RMK AO2

FAA Disclaimer: The data displayed is for advisory purposes only and is not to be used for flight planning or operations.